sensor_id;sensor_type;location;lat;lon;timestamp;temperature;humidity
12446;DHT22;6287;50.984;7.022;2022-10-31T00:00:52;12.20;99.90
12446;DHT22;6287;50.984;7.022;2022-10-31T00:03:18;12.20;99.90
12446;DHT22;6287;50.984;7.022;2022-10-31T00:05:45;12.30;99.90
12446;DHT22;6287;50.984;7.022;2022-10-31T00:08:14;12.20;99.90
12446;DHT22;6287;50.984;7.022;2022-10-31T00:10:43;12.20;99.90
12446;DHT22;6287;50.984;7.022;2022-10-31T00:13:10;12.20;99.90
12446;DHT22;6287;50.984;7.022;2022-10-31T00:15:38;12.20;99.90
12446;DHT22;6287;50.984;7.022;2022-10-31T00:18:07;12.20;99.90
12446;DHT22;6287;50.984;7.022;2022-10-31T00:20:33;12.10;99.90
12446;DHT22;6287;50.984;7.022;2022-10-31T00:23:03;12.10;99.90
12446;DHT22;6287;50.984;7.022;2022-10-31T00:25:32;12.10;99.90
12446;DHT22;6287;50.984;7.022;2022-10-31T00:27:58;12.10;99.90
12446;DHT22;6287;50.984;7.022;2022-10-31T00:30:23;12.00;99.90
12446;DHT22;6287;50.984;7.022;2022-10-31T00:32:51;12.00;99.90
12446;DHT22;6287;50.984;7.022;2022-10-31T00:35:19;12.00;99.90
12446;DHT22;6287;50.984;7.022;2022-10-31T00:37:47;12.00;99.90
12446;DHT22;6287;50.984;7.022;2022-10-31T00:40:17;11.90;99.90
12446;DHT22;6287;50.984;7.022;2022-10-31T00:42:45;11.80;99.90
12446;DHT22;6287;50.984;7.022;2022-10-31T00:45:13;11.90;99.90
12446;DHT22;6287;50.984;7.022;2022-10-31T00:47:41;11.90;99.90
12446;DHT22;6287;50.984;7.022;2022-10-31T00:50:07;11.90;99.90
12446;DHT22;6287;50.984;7.022;2022-10-31T00:52:35;11.90;99.90
12446;DHT22;6287;50.984;7.022;2022-10-31T00:55:01;11.80;99.90
12446;DHT22;6287;50.984;7.022;2022-10-31T00:57:27;11.90;99.90
12446;DHT22;6287;50.984;7.022;2022-10-31T00:59:54;11.90;99.90
12446;DHT22;6287;50.984;7.022;2022-10-31T01:02:22;12.00;99.90
12446;DHT22;6287;50.984;7.022;2022-10-31T01:04:50;11.90;99.90
12446;DHT22;6287;50.984;7.022;2022-10-31T01:07:18;11.90;99.90
12446;DHT22;6287;50.984;7.022;2022-10-31T01:09:46;11.90;99.90
12446;DHT22;6287;50.984;7.022;2022-10-31T01:12:14;12.00;99.90
12446;DHT22;6287;50.984;7.022;2022-10-31T01:14:43;12.00;99.90
12446;DHT22;6287;50.984;7.022;2022-10-31T01:17:12;12.00;99.90
12446;DHT22;6287;50.984;7.022;2022-10-31T01:19:41;12.00;99.90
12446;DHT22;6287;50.984;7.022;2022-10-31T01:22:07;11.90;99.90
12446;DHT22;6287;50.984;7.022;2022-10-31T01:24:35;12.00;99.90
12446;DHT22;6287;50.984;7.022;2022-10-31T01:27:00;12.00;99.90
12446;DHT22;6287;50.984;7.022;2022-10-31T01:29:26;12.00;99.90
12446;DHT22;6287;50.984;7.022;2022-10-31T01:31:56;12.10;99.90
12446;DHT22;6287;50.984;7.022;2022-10-31T01:34:24;12.10;99.90
12446;DHT22;6287;50.984;7.022;2022-10-31T01:36:49;12.00;99.90
12446;DHT22;6287;50.984;7.022;2022-10-31T01:39:18;12.10;99.90
12446;DHT22;6287;50.984;7.022;2022-10-31T01:41:49;12.10;99.90
12446;DHT22;6287;50.984;7.022;2022-10-31T01:46:50;12.10;99.90
12446;DHT22;6287;50.984;7.022;2022-10-31T01:49:18;12.00;99.90
12446;DHT22;6287;50.984;7.022;2022-10-31T01:51:48;12.00;99.90
12446;DHT22;6287;50.984;7.022;2022-10-31T01:54:23;12.00;99.90
12446;DHT22;6287;50.984;7.022;2022-10-31T01:56:56;12.00;99.90
12446;DHT22;6287;50.984;7.022;2022-10-31T01:59:24;11.90;99.90
12446;DHT22;6287;50.984;7.022;2022-10-31T02:01:53;11.90;99.90
12446;DHT22;6287;50.984;7.022;2022-10-31T02:04:25;11.90;99.90
12446;DHT22;6287;50.984;7.022;2022-10-31T02:06:57;11.90;99.90
12446;DHT22;6287;50.984;7.022;2022-10-31T02:09:25;11.90;99.90
12446;DHT22;6287;50.984;7.022;2022-10-31T02:11:54;11.80;99.90
12446;DHT22;6287;50.984;7.022;2022-10-31T02:14:24;11.80;99.90
12446;DHT22;6287;50.984;7.022;2022-10-31T02:16:53;11.80;99.90
12446;DHT22;6287;50.984;7.022;2022-10-31T02:19:31;11.70;99.90
12446;DHT22;6287;50.984;7.022;2022-10-31T02:22:12;11.70;99.90
12446;DHT22;6287;50.984;7.022;2022-10-31T02:28:16;11.60;99.90
12446;DHT22;6287;50.984;7.022;2022-10-31T02:33:58;11.60;99.90
12446;DHT22;6287;50.984;7.022;2022-10-31T02:47:19;11.50;99.90
12446;DHT22;6287;50.984;7.022;2022-10-31T02:54:48;11.50;99.90
12446;DHT22;6287;50.984;7.022;2022-10-31T02:57:20;11.60;99.90
12446;DHT22;6287;50.984;7.022;2022-10-31T02:59:50;11.60;99.90
12446;DHT22;6287;50.984;7.022;2022-10-31T03:05:12;11.70;99.90
12446;DHT22;6287;50.984;7.022;2022-10-31T03:07:55;11.80;99.90
12446;DHT22;6287;50.984;7.022;2022-10-31T03:13:09;11.90;99.90
12446;DHT22;6287;50.984;7.022;2022-10-31T03:15:46;11.90;99.90
12446;DHT22;6287;50.984;7.022;2022-10-31T03:18:27;12.00;99.90
12446;DHT22;6287;50.984;7.022;2022-10-31T03:21:14;12.00;99.90
12446;DHT22;6287;50.984;7.022;2022-10-31T03:23:43;12.00;99.90
12446;DHT22;6287;50.984;7.022;2022-10-31T03:26:11;12.10;99.90
12446;DHT22;6287;50.984;7.022;2022-10-31T03:28:48;12.10;99.90
12446;DHT22;6287;50.984;7.022;2022-10-31T03:31:17;12.10;99.90
12446;DHT22;6287;50.984;7.022;2022-10-31T03:33:47;12.10;99.90
12446;DHT22;6287;50.984;7.022;2022-10-31T03:36:15;12.10;99.90
12446;DHT22;6287;50.984;7.022;2022-10-31T03:38:43;12.10;99.90
12446;DHT22;6287;50.984;7.022;2022-10-31T03:41:19;12.10;99.90
12446;DHT22;6287;50.984;7.022;2022-10-31T03:43:55;12.00;99.90
12446;DHT22;6287;50.984;7.022;2022-10-31T03:46:26;12.10;99.90
12446;DHT22;6287;50.984;7.022;2022-10-31T03:48:54;12.10;99.90
12446;DHT22;6287;50.984;7.022;2022-10-31T03:51:40;12.10;99.90
12446;DHT22;6287;50.984;7.022;2022-10-31T03:57:11;12.10;99.90
12446;DHT22;6287;50.984;7.022;2022-10-31T03:59:49;12.10;99.90
12446;DHT22;6287;50.984;7.022;2022-10-31T04:02:20;12.10;99.90
12446;DHT22;6287;50.984;7.022;2022-10-31T04:04:48;12.10;99.90
12446;DHT22;6287;50.984;7.022;2022-10-31T04:07:17;12.10;99.90
12446;DHT22;6287;50.984;7.022;2022-10-31T04:09:46;12.10;99.90
12446;DHT22;6287;50.984;7.022;2022-10-31T04:12:15;12.10;99.90
12446;DHT22;6287;50.984;7.022;2022-10-31T04:14:43;12.10;99.90
12446;DHT22;6287;50.984;7.022;2022-10-31T04:17:15;12.10;99.90
12446;DHT22;6287;50.984;7.022;2022-10-31T04:19:41;12.10;99.90
12446;DHT22;6287;50.984;7.022;2022-10-31T04:22:10;12.10;99.90
12446;DHT22;6287;50.984;7.022;2022-10-31T04:24:39;12.00;99.90
12446;DHT22;6287;50.984;7.022;2022-10-31T04:27:08;12.00;99.90
12446;DHT22;6287;50.984;7.022;2022-10-31T04:29:36;12.10;99.90
12446;DHT22;6287;50.984;7.022;2022-10-31T04:32:08;12.00;99.90
12446;DHT22;6287;50.984;7.022;2022-10-31T04:34:36;12.00;99.90
12446;DHT22;6287;50.984;7.022;2022-10-31T04:37:04;11.90;99.90
12446;DHT22;6287;50.984;7.022;2022-10-31T04:39:30;12.00;99.90
12446;DHT22;6287;50.984;7.022;2022-10-31T04:41:55;11.90;99.90
12446;DHT22;6287;50.984;7.022;2022-10-31T04:44:23;11.70;99.90
12446;DHT22;6287;50.984;7.022;2022-10-31T04:46:51;11.80;99.90
12446;DHT22;6287;50.984;7.022;2022-10-31T04:49:19;11.70;99.90
12446;DHT22;6287;50.984;7.022;2022-10-31T04:51:46;11.70;99.90
12446;DHT22;6287;50.984;7.022;2022-10-31T04:54:12;11.70;99.90
12446;DHT22;6287;50.984;7.022;2022-10-31T04:56:37;11.60;99.90
12446;DHT22;6287;50.984;7.022;2022-10-31T04:59:05;11.60;99.90
12446;DHT22;6287;50.984;7.022;2022-10-31T05:01:31;11.60;99.90
12446;DHT22;6287;50.984;7.022;2022-10-31T05:03:56;11.60;99.90
12446;DHT22;6287;50.984;7.022;2022-10-31T05:06:22;11.60;99.90
12446;DHT22;6287;50.984;7.022;2022-10-31T05:08:50;11.60;99.90
12446;DHT22;6287;50.984;7.022;2022-10-31T05:11:16;11.50;99.90
12446;DHT22;6287;50.984;7.022;2022-10-31T05:13:41;11.50;99.90
12446;DHT22;6287;50.984;7.022;2022-10-31T05:16:07;11.60;99.90
12446;DHT22;6287;50.984;7.022;2022-10-31T05:18:32;11.50;99.90
12446;DHT22;6287;50.984;7.022;2022-10-31T05:20:58;11.40;99.90
12446;DHT22;6287;50.984;7.022;2022-10-31T05:23:23;11.40;99.90
12446;DHT22;6287;50.984;7.022;2022-10-31T05:25:51;11.40;99.90
12446;DHT22;6287;50.984;7.022;2022-10-31T05:28:19;11.40;99.90
12446;DHT22;6287;50.984;7.022;2022-10-31T05:30:44;11.40;99.90
12446;DHT22;6287;50.984;7.022;2022-10-31T05:33:12;11.40;99.90
12446;DHT22;6287;50.984;7.022;2022-10-31T05:35:38;11.40;99.90
12446;DHT22;6287;50.984;7.022;2022-10-31T05:38:06;11.40;99.90
12446;DHT22;6287;50.984;7.022;2022-10-31T05:40:36;11.40;99.90
12446;DHT22;6287;50.984;7.022;2022-10-31T05:43:03;11.40;99.90
12446;DHT22;6287;50.984;7.022;2022-10-31T05:45:29;11.40;99.90
12446;DHT22;6287;50.984;7.022;2022-10-31T05:48:00;11.40;99.90
12446;DHT22;6287;50.984;7.022;2022-10-31T05:50:28;11.40;99.90
12446;DHT22;6287;50.984;7.022;2022-10-31T05:52:59;11.40;99.90
12446;DHT22;6287;50.984;7.022;2022-10-31T05:55:28;11.40;99.90
12446;DHT22;6287;50.984;7.022;2022-10-31T05:57:54;11.40;99.90
12446;DHT22;6287;50.984;7.022;2022-10-31T06:00:25;11.30;99.90
12446;DHT22;6287;50.984;7.022;2022-10-31T06:03:04;11.40;99.90
12446;DHT22;6287;50.984;7.022;2022-10-31T06:05:31;11.40;99.90
12446;DHT22;6287;50.984;7.022;2022-10-31T06:07:59;11.40;99.90
12446;DHT22;6287;50.984;7.022;2022-10-31T06:10:26;11.40;99.90
12446;DHT22;6287;50.984;7.022;2022-10-31T06:12:52;11.30;99.90
12446;DHT22;6287;50.984;7.022;2022-10-31T06:15:20;11.40;99.90
12446;DHT22;6287;50.984;7.022;2022-10-31T06:17:58;11.40;99.90
12446;DHT22;6287;50.984;7.022;2022-10-31T06:20:24;11.40;99.90
12446;DHT22;6287;50.984;7.022;2022-10-31T06:22:49;11.40;99.90
12446;DHT22;6287;50.984;7.022;2022-10-31T06:25:15;11.40;99.90
12446;DHT22;6287;50.984;7.022;2022-10-31T06:27:40;11.30;99.90
12446;DHT22;6287;50.984;7.022;2022-10-31T06:30:08;11.30;99.90
12446;DHT22;6287;50.984;7.022;2022-10-31T06:32:34;11.30;99.90
12446;DHT22;6287;50.984;7.022;2022-10-31T06:35:02;11.30;99.90
12446;DHT22;6287;50.984;7.022;2022-10-31T06:37:28;11.30;99.90
12446;DHT22;6287;50.984;7.022;2022-10-31T06:39:56;11.30;99.90
12446;DHT22;6287;50.984;7.022;2022-10-31T06:42:21;11.30;99.90
12446;DHT22;6287;50.984;7.022;2022-10-31T06:44:47;11.30;99.90
12446;DHT22;6287;50.984;7.022;2022-10-31T06:47:12;11.30;99.90
12446;DHT22;6287;50.984;7.022;2022-10-31T06:49:40;11.30;99.90
12446;DHT22;6287;50.984;7.022;2022-10-31T06:52:12;11.40;99.90
12446;DHT22;6287;50.984;7.022;2022-10-31T06:54:38;11.40;99.90
12446;DHT22;6287;50.984;7.022;2022-10-31T06:57:03;11.40;99.90
12446;DHT22;6287;50.984;7.022;2022-10-31T06:59:29;11.50;99.90
12446;DHT22;6287;50.984;7.022;2022-10-31T07:01:55;11.50;99.90
12446;DHT22;6287;50.984;7.022;2022-10-31T07:04:23;11.50;99.90
12446;DHT22;6287;50.984;7.022;2022-10-31T07:06:51;11.60;99.90
12446;DHT22;6287;50.984;7.022;2022-10-31T07:09:19;11.70;99.90
12446;DHT22;6287;50.984;7.022;2022-10-31T07:11:45;11.70;99.90
12446;DHT22;6287;50.984;7.022;2022-10-31T07:14:13;11.70;99.90
12446;DHT22;6287;50.984;7.022;2022-10-31T07:16:40;11.80;99.90
12446;DHT22;6287;50.984;7.022;2022-10-31T07:19:08;11.90;99.90
12446;DHT22;6287;50.984;7.022;2022-10-31T07:21:36;11.90;99.90
12446;DHT22;6287;50.984;7.022;2022-10-31T07:24:02;11.90;99.90
12446;DHT22;6287;50.984;7.022;2022-10-31T07:26:30;12.00;99.90
12446;DHT22;6287;50.984;7.022;2022-10-31T07:28:58;12.10;99.90
12446;DHT22;6287;50.984;7.022;2022-10-31T07:31:27;12.10;99.90
12446;DHT22;6287;50.984;7.022;2022-10-31T07:33:52;12.20;99.90
12446;DHT22;6287;50.984;7.022;2022-10-31T07:36:22;12.20;99.90
12446;DHT22;6287;50.984;7.022;2022-10-31T07:38:49;12.30;99.90
12446;DHT22;6287;50.984;7.022;2022-10-31T07:41:17;12.40;99.90
12446;DHT22;6287;50.984;7.022;2022-10-31T07:43:45;12.40;99.90
12446;DHT22;6287;50.984;7.022;2022-10-31T07:46:15;12.50;99.90
12446;DHT22;6287;50.984;7.022;2022-10-31T07:48:41;12.60;99.90
12446;DHT22;6287;50.984;7.022;2022-10-31T07:51:07;12.70;99.90
12446;DHT22;6287;50.984;7.022;2022-10-31T07:53:35;12.70;99.90
12446;DHT22;6287;50.984;7.022;2022-10-31T07:56:00;12.80;99.90
12446;DHT22;6287;50.984;7.022;2022-10-31T07:58:26;12.80;99.90
12446;DHT22;6287;50.984;7.022;2022-10-31T08:00:51;12.90;99.90
12446;DHT22;6287;50.984;7.022;2022-10-31T08:03:21;13.00;99.90
12446;DHT22;6287;50.984;7.022;2022-10-31T08:05:47;13.00;99.90
12446;DHT22;6287;50.984;7.022;2022-10-31T08:08:17;13.10;99.90
12446;DHT22;6287;50.984;7.022;2022-10-31T08:10:45;13.10;99.90
12446;DHT22;6287;50.984;7.022;2022-10-31T08:13:13;13.10;99.90
12446;DHT22;6287;50.984;7.022;2022-10-31T08:15:42;13.20;99.90
12446;DHT22;6287;50.984;7.022;2022-10-31T08:18:14;13.20;99.90
12446;DHT22;6287;50.984;7.022;2022-10-31T08:20:41;13.30;99.90
12446;DHT22;6287;50.984;7.022;2022-10-31T08:23:09;13.30;99.90
12446;DHT22;6287;50.984;7.022;2022-10-31T08:25:37;13.30;99.90
12446;DHT22;6287;50.984;7.022;2022-10-31T08:28:09;13.30;99.90
12446;DHT22;6287;50.984;7.022;2022-10-31T08:30:40;13.40;99.90
12446;DHT22;6287;50.984;7.022;2022-10-31T08:33:11;13.40;99.90
12446;DHT22;6287;50.984;7.022;2022-10-31T08:35:37;13.40;99.90
12446;DHT22;6287;50.984;7.022;2022-10-31T08:38:03;13.40;99.90
12446;DHT22;6287;50.984;7.022;2022-10-31T08:40:30;13.50;99.90
12446;DHT22;6287;50.984;7.022;2022-10-31T08:43:03;13.50;99.90
12446;DHT22;6287;50.984;7.022;2022-10-31T08:45:30;13.60;99.90
12446;DHT22;6287;50.984;7.022;2022-10-31T08:48:07;13.60;99.90
12446;DHT22;6287;50.984;7.022;2022-10-31T08:50:35;13.70;99.90
12446;DHT22;6287;50.984;7.022;2022-10-31T08:53:12;13.70;99.90
12446;DHT22;6287;50.984;7.022;2022-10-31T08:55:38;13.80;99.90
12446;DHT22;6287;50.984;7.022;2022-10-31T08:58:09;13.90;99.90
12446;DHT22;6287;50.984;7.022;2022-10-31T09:00:37;14.00;99.90
12446;DHT22;6287;50.984;7.022;2022-10-31T09:03:11;14.00;99.90
12446;DHT22;6287;50.984;7.022;2022-10-31T09:05:37;14.10;99.90
12446;DHT22;6287;50.984;7.022;2022-10-31T09:08:06;14.20;99.90
12446;DHT22;6287;50.984;7.022;2022-10-31T09:10:33;14.30;99.90
12446;DHT22;6287;50.984;7.022;2022-10-31T09:13:02;14.30;99.90
12446;DHT22;6287;50.984;7.022;2022-10-31T09:15:32;14.40;99.90
12446;DHT22;6287;50.984;7.022;2022-10-31T09:18:02;14.40;99.90
12446;DHT22;6287;50.984;7.022;2022-10-31T09:20:28;14.40;99.90
12446;DHT22;6287;50.984;7.022;2022-10-31T09:23:05;14.40;99.90
12446;DHT22;6287;50.984;7.022;2022-10-31T09:25:36;14.50;99.90
12446;DHT22;6287;50.984;7.022;2022-10-31T09:28:03;14.60;99.90
12446;DHT22;6287;50.984;7.022;2022-10-31T09:30:32;14.60;99.90
12446;DHT22;6287;50.984;7.022;2022-10-31T09:32:59;14.60;99.90
12446;DHT22;6287;50.984;7.022;2022-10-31T09:35:27;14.70;99.90
12446;DHT22;6287;50.984;7.022;2022-10-31T09:37:57;14.70;99.90
12446;DHT22;6287;50.984;7.022;2022-10-31T09:40:35;14.80;99.90
12446;DHT22;6287;50.984;7.022;2022-10-31T09:51:54;15.10;99.90
12446;DHT22;6287;50.984;7.022;2022-10-31T09:54:40;15.30;99.90
12446;DHT22;6287;50.984;7.022;2022-10-31T09:57:13;15.60;99.90
12446;DHT22;6287;50.984;7.022;2022-10-31T09:59:40;15.80;99.90
12446;DHT22;6287;50.984;7.022;2022-10-31T10:10:00;16.90;99.90
12446;DHT22;6287;50.984;7.022;2022-10-31T10:12:40;17.20;99.90
12446;DHT22;6287;50.984;7.022;2022-10-31T10:23:57;18.20;99.90
12446;DHT22;6287;50.984;7.022;2022-10-31T10:26:41;18.50;99.90
12446;DHT22;6287;50.984;7.022;2022-10-31T10:29:39;18.80;99.90
12446;DHT22;6287;50.984;7.022;2022-10-31T10:32:13;19.10;99.90
12446;DHT22;6287;50.984;7.022;2022-10-31T10:34:50;19.30;99.90
12446;DHT22;6287;50.984;7.022;2022-10-31T10:39:52;19.80;99.90
12446;DHT22;6287;50.984;7.022;2022-10-31T10:42:19;19.90;99.90
12446;DHT22;6287;50.984;7.022;2022-10-31T10:45:17;19.80;99.90
12446;DHT22;6287;50.984;7.022;2022-10-31T10:48:15;19.70;99.90
12446;DHT22;6287;50.984;7.022;2022-10-31T10:50:46;19.80;99.90
12446;DHT22;6287;50.984;7.022;2022-10-31T10:53:25;19.90;99.90
12446;DHT22;6287;50.984;7.022;2022-10-31T10:56:21;20.00;99.90
12446;DHT22;6287;50.984;7.022;2022-10-31T10:58:48;20.00;99.90
12446;DHT22;6287;50.984;7.022;2022-10-31T11:01:16;20.00;99.90
12446;DHT22;6287;50.984;7.022;2022-10-31T11:03:42;19.80;99.90
12446;DHT22;6287;50.984;7.022;2022-10-31T11:06:26;19.80;99.90
12446;DHT22;6287;50.984;7.022;2022-10-31T11:08:52;19.70;99.90
12446;DHT22;6287;50.984;7.022;2022-10-31T11:11:31;19.60;99.90
12446;DHT22;6287;50.984;7.022;2022-10-31T11:14:05;19.70;99.90
12446;DHT22;6287;50.984;7.022;2022-10-31T11:16:42;19.70;99.90
12446;DHT22;6287;50.984;7.022;2022-10-31T11:19:28;19.70;99.90
12446;DHT22;6287;50.984;7.022;2022-10-31T11:21:54;19.70;99.90
12446;DHT22;6287;50.984;7.022;2022-10-31T11:24:30;19.80;99.90
12446;DHT22;6287;50.984;7.022;2022-10-31T11:27:21;19.90;99.90
12446;DHT22;6287;50.984;7.022;2022-10-31T11:29:52;19.90;99.90
12446;DHT22;6287;50.984;7.022;2022-10-31T11:32:23;19.90;99.90
12446;DHT22;6287;50.984;7.022;2022-10-31T11:34:57;20.00;99.90
12446;DHT22;6287;50.984;7.022;2022-10-31T11:37:29;20.00;99.90
12446;DHT22;6287;50.984;7.022;2022-10-31T11:39:59;20.10;99.90
12446;DHT22;6287;50.984;7.022;2022-10-31T11:42:40;20.00;99.90
12446;DHT22;6287;50.984;7.022;2022-10-31T11:45:18;20.00;99.90
12446;DHT22;6287;50.984;7.022;2022-10-31T11:47:54;20.00;99.90
12446;DHT22;6287;50.984;7.022;2022-10-31T11:50:26;20.00;99.90
12446;DHT22;6287;50.984;7.022;2022-10-31T11:52:55;20.10;99.90
12446;DHT22;6287;50.984;7.022;2022-10-31T11:55:33;20.20;99.90
12446;DHT22;6287;50.984;7.022;2022-10-31T11:57:59;20.40;99.90
12446;DHT22;6287;50.984;7.022;2022-10-31T12:00:26;20.50;99.90
12446;DHT22;6287;50.984;7.022;2022-10-31T12:03:10;20.60;99.90
12446;DHT22;6287;50.984;7.022;2022-10-31T12:05:39;20.90;99.90
12446;DHT22;6287;50.984;7.022;2022-10-31T12:08:12;21.10;99.90
12446;DHT22;6287;50.984;7.022;2022-10-31T12:11:13;21.10;99.90
12446;DHT22;6287;50.984;7.022;2022-10-31T12:19:05;21.00;99.90
12446;DHT22;6287;50.984;7.022;2022-10-31T12:24:16;21.10;99.90
12446;DHT22;6287;50.984;7.022;2022-10-31T12:29:55;21.00;99.90
12446;DHT22;6287;50.984;7.022;2022-10-31T12:32:29;21.00;99.90
12446;DHT22;6287;50.984;7.022;2022-10-31T12:35:18;20.90;99.90
12446;DHT22;6287;50.984;7.022;2022-10-31T12:40:52;20.90;99.90
12446;DHT22;6287;50.984;7.022;2022-10-31T12:58:24;21.30;99.90
12446;DHT22;6287;50.984;7.022;2022-10-31T13:06:32;21.30;99.90
12446;DHT22;6287;50.984;7.022;2022-10-31T13:09:02;21.30;99.90
12446;DHT22;6287;50.984;7.022;2022-10-31T13:16:33;20.90;99.90
12446;DHT22;6287;50.984;7.022;2022-10-31T13:24:39;20.70;99.90
12446;DHT22;6287;50.984;7.022;2022-10-31T13:27:25;20.60;99.90
12446;DHT22;6287;50.984;7.022;2022-10-31T13:32:43;20.80;99.90
12446;DHT22;6287;50.984;7.022;2022-10-31T13:48:59;20.70;99.90
12446;DHT22;6287;50.984;7.022;2022-10-31T13:51:27;20.70;99.90
12446;DHT22;6287;50.984;7.022;2022-10-31T13:54:56;20.60;99.90
12446;DHT22;6287;50.984;7.022;2022-10-31T13:56:52;20.60;99.90
12446;DHT22;6287;50.984;7.022;2022-10-31T13:59:22;20.50;99.90
12446;DHT22;6287;50.984;7.022;2022-10-31T14:04:25;20.40;99.90
12446;DHT22;6287;50.984;7.022;2022-10-31T14:07:41;20.30;99.90
12446;DHT22;6287;50.984;7.022;2022-10-31T14:09:56;20.20;99.90
12446;DHT22;6287;50.984;7.022;2022-10-31T14:12:43;20.00;99.90
12446;DHT22;6287;50.984;7.022;2022-10-31T14:17:51;20.00;99.90
12446;DHT22;6287;50.984;7.022;2022-10-31T14:22:48;19.90;99.90
12446;DHT22;6287;50.984;7.022;2022-10-31T14:25:31;19.90;99.90
12446;DHT22;6287;50.984;7.022;2022-10-31T14:28:17;19.90;99.90
12446;DHT22;6287;50.984;7.022;2022-10-31T14:30:56;19.90;99.90
12446;DHT22;6287;50.984;7.022;2022-10-31T14:33:27;19.90;99.90
12446;DHT22;6287;50.984;7.022;2022-10-31T14:36:18;19.90;99.90
12446;DHT22;6287;50.984;7.022;2022-10-31T14:39:01;19.80;99.90
12446;DHT22;6287;50.984;7.022;2022-10-31T14:52:16;19.70;99.90
12446;DHT22;6287;50.984;7.022;2022-10-31T14:54:51;19.70;99.90
12446;DHT22;6287;50.984;7.022;2022-10-31T14:57:30;19.70;99.90
12446;DHT22;6287;50.984;7.022;2022-10-31T15:00:12;19.70;99.90
12446;DHT22;6287;50.984;7.022;2022-10-31T15:02:59;19.70;99.90
12446;DHT22;6287;50.984;7.022;2022-10-31T15:05:28;19.60;99.90
12446;DHT22;6287;50.984;7.022;2022-10-31T15:07:56;19.60;99.90
12446;DHT22;6287;50.984;7.022;2022-10-31T15:10:28;19.60;99.90
12446;DHT22;6287;50.984;7.022;2022-10-31T15:13:09;19.50;99.90
12446;DHT22;6287;50.984;7.022;2022-10-31T15:15:38;19.50;99.90
12446;DHT22;6287;50.984;7.022;2022-10-31T15:18:05;19.40;99.90
12446;DHT22;6287;50.984;7.022;2022-10-31T15:20:42;19.40;99.90
12446;DHT22;6287;50.984;7.022;2022-10-31T15:23:14;19.40;99.90
12446;DHT22;6287;50.984;7.022;2022-10-31T15:25:46;19.40;99.90
12446;DHT22;6287;50.984;7.022;2022-10-31T15:28:21;19.30;99.90
12446;DHT22;6287;50.984;7.022;2022-10-31T15:31:00;19.30;99.90
12446;DHT22;6287;50.984;7.022;2022-10-31T15:33:31;19.20;99.90
12446;DHT22;6287;50.984;7.022;2022-10-31T15:36:04;19.20;99.90
12446;DHT22;6287;50.984;7.022;2022-10-31T15:38:30;19.20;99.90
12446;DHT22;6287;50.984;7.022;2022-10-31T15:41:04;19.10;99.90
12446;DHT22;6287;50.984;7.022;2022-10-31T15:43:37;19.00;99.90
12446;DHT22;6287;50.984;7.022;2022-10-31T15:46:07;18.90;99.90
12446;DHT22;6287;50.984;7.022;2022-10-31T15:48:36;18.90;99.90
12446;DHT22;6287;50.984;7.022;2022-10-31T15:51:03;18.80;99.90
12446;DHT22;6287;50.984;7.022;2022-10-31T15:53:46;18.80;99.90
12446;DHT22;6287;50.984;7.022;2022-10-31T15:56:22;18.70;99.90
12446;DHT22;6287;50.984;7.022;2022-10-31T15:58:50;18.70;99.90
12446;DHT22;6287;50.984;7.022;2022-10-31T16:06:35;18.50;99.90
12446;DHT22;6287;50.984;7.022;2022-10-31T16:09:03;18.40;99.90
12446;DHT22;6287;50.984;7.022;2022-10-31T16:11:43;18.30;99.90
12446;DHT22;6287;50.984;7.022;2022-10-31T16:16:47;18.20;99.90
12446;DHT22;6287;50.984;7.022;2022-10-31T16:19:35;18.00;99.90
12446;DHT22;6287;50.984;7.022;2022-10-31T16:22:13;18.10;99.90
12446;DHT22;6287;50.984;7.022;2022-10-31T16:27:22;17.90;99.90
12446;DHT22;6287;50.984;7.022;2022-10-31T16:29:58;17.80;99.90
12446;DHT22;6287;50.984;7.022;2022-10-31T16:32:57;17.70;99.90
12446;DHT22;6287;50.984;7.022;2022-10-31T16:35:36;17.60;99.90
12446;DHT22;6287;50.984;7.022;2022-10-31T16:38:03;17.50;99.90
12446;DHT22;6287;50.984;7.022;2022-10-31T16:40:34;17.50;99.90
12446;DHT22;6287;50.984;7.022;2022-10-31T16:43:02;17.40;99.90
12446;DHT22;6287;50.984;7.022;2022-10-31T16:45:32;17.40;99.90
12446;DHT22;6287;50.984;7.022;2022-10-31T16:48:04;17.40;99.90
12446;DHT22;6287;50.984;7.022;2022-10-31T16:50:30;17.30;99.90
12446;DHT22;6287;50.984;7.022;2022-10-31T16:53:00;17.30;99.90
12446;DHT22;6287;50.984;7.022;2022-10-31T16:55:26;17.30;99.90
12446;DHT22;6287;50.984;7.022;2022-10-31T16:57:54;17.30;99.90
12446;DHT22;6287;50.984;7.022;2022-10-31T17:00:24;17.30;99.90
12446;DHT22;6287;50.984;7.022;2022-10-31T17:02:55;17.30;99.90
12446;DHT22;6287;50.984;7.022;2022-10-31T17:05:26;17.30;99.90
12446;DHT22;6287;50.984;7.022;2022-10-31T17:07:56;17.30;99.90
12446;DHT22;6287;50.984;7.022;2022-10-31T17:10:22;17.20;99.90
12446;DHT22;6287;50.984;7.022;2022-10-31T17:12:48;17.30;99.90
12446;DHT22;6287;50.984;7.022;2022-10-31T17:15:25;17.20;99.90
12446;DHT22;6287;50.984;7.022;2022-10-31T17:17:52;17.20;99.90
12446;DHT22;6287;50.984;7.022;2022-10-31T17:20:23;17.20;99.90
12446;DHT22;6287;50.984;7.022;2022-10-31T17:22:51;17.20;99.90
12446;DHT22;6287;50.984;7.022;2022-10-31T17:25:22;17.10;99.90
12446;DHT22;6287;50.984;7.022;2022-10-31T17:27:49;17.10;99.90
12446;DHT22;6287;50.984;7.022;2022-10-31T17:30:18;17.10;99.90
12446;DHT22;6287;50.984;7.022;2022-10-31T17:32:46;17.00;99.90
12446;DHT22;6287;50.984;7.022;2022-10-31T17:35:15;17.00;99.90
12446;DHT22;6287;50.984;7.022;2022-10-31T17:37:42;17.00;99.90
12446;DHT22;6287;50.984;7.022;2022-10-31T17:40:15;17.00;99.90
12446;DHT22;6287;50.984;7.022;2022-10-31T17:42:41;16.90;99.90
12446;DHT22;6287;50.984;7.022;2022-10-31T17:45:09;16.90;99.90
12446;DHT22;6287;50.984;7.022;2022-10-31T17:47:37;16.90;99.90
12446;DHT22;6287;50.984;7.022;2022-10-31T17:50:05;16.90;99.90
12446;DHT22;6287;50.984;7.022;2022-10-31T17:52:31;16.90;99.90
12446;DHT22;6287;50.984;7.022;2022-10-31T17:54:59;16.90;99.90
12446;DHT22;6287;50.984;7.022;2022-10-31T17:57:24;16.80;99.90
12446;DHT22;6287;50.984;7.022;2022-10-31T17:59:50;16.80;99.90
12446;DHT22;6287;50.984;7.022;2022-10-31T18:02:15;16.80;99.90
12446;DHT22;6287;50.984;7.022;2022-10-31T18:04:41;16.70;99.90
12446;DHT22;6287;50.984;7.022;2022-10-31T18:07:09;16.70;99.90
12446;DHT22;6287;50.984;7.022;2022-10-31T18:09:37;16.70;99.90
12446;DHT22;6287;50.984;7.022;2022-10-31T18:12:03;16.60;99.90
12446;DHT22;6287;50.984;7.022;2022-10-31T18:14:29;16.60;99.90
12446;DHT22;6287;50.984;7.022;2022-10-31T18:16:54;16.60;99.90
12446;DHT22;6287;50.984;7.022;2022-10-31T18:19:20;16.50;99.90
12446;DHT22;6287;50.984;7.022;2022-10-31T18:21:46;16.50;99.90
12446;DHT22;6287;50.984;7.022;2022-10-31T18:24:11;16.50;99.90
12446;DHT22;6287;50.984;7.022;2022-10-31T18:26:37;16.50;99.90
12446;DHT22;6287;50.984;7.022;2022-10-31T18:29:06;16.50;99.90
12446;DHT22;6287;50.984;7.022;2022-10-31T18:31:34;16.50;99.90
12446;DHT22;6287;50.984;7.022;2022-10-31T18:34:00;16.50;99.90
12446;DHT22;6287;50.984;7.022;2022-10-31T18:36:27;16.50;99.90
12446;DHT22;6287;50.984;7.022;2022-10-31T18:38:53;16.50;99.90